createdAt,value
2022-07-31T00:01:09.056Z,75.70
2022-07-31T00:06:12.759Z,76.40
2022-07-31T00:11:18.436Z,75.70
2022-07-31T00:16:22.259Z,75.60
2022-07-31T00:21:26.100Z,75.70
2022-07-31T00:26:31.271Z,75.60
2022-07-31T00:31:35.012Z,75.60
2022-07-31T00:36:42.954Z,75.70
2022-07-31T00:41:49.600Z,75.70
2022-07-31T00:46:53.320Z,76.20
2022-07-31T00:51:57.251Z,76.20
2022-07-31T00:57:03.249Z,76.60
2022-07-31T01:02:08.350Z,77.00
2022-07-31T01:07:12.063Z,77.30
2022-07-31T01:12:27.098Z,77.60
2022-07-31T01:17:32.442Z,77.80
2022-07-31T01:22:53.825Z,78.20
2022-07-31T01:28:08.156Z,79.10
2022-07-31T01:33:18.528Z,78.30
2022-07-31T01:38:26.054Z,78.60
2022-07-31T01:43:33.806Z,78.80
2022-07-31T01:48:41.561Z,79.10
2022-07-31T01:53:47.778Z,79.50
2022-07-31T01:58:52.676Z,79.60
2022-07-31T02:04:21.773Z,79.90
2022-07-31T02:09:28.164Z,80.10
2022-07-31T02:14:32.741Z,80.40
2022-07-31T02:19:40.332Z,81.30
2022-07-31T02:25:05.095Z,80.90
2022-07-31T02:30:14.689Z,81.00
2022-07-31T02:35:22.271Z,81.60
2022-07-31T02:40:26.962Z,81.50
2022-07-31T02:45:31.082Z,81.60
2022-07-31T02:50:36.305Z,81.70
2022-07-31T02:55:41.834Z,81.90
2022-07-31T03:00:46.021Z,81.90
2022-07-31T03:05:52.281Z,82.10
2022-07-31T03:10:56.190Z,82.30
2022-07-31T03:16:04.276Z,82.50
2022-07-31T03:21:11.939Z,82.60
2022-07-31T03:26:16.637Z,82.90
2022-07-31T03:31:20.374Z,83.00
2022-07-31T03:36:27.214Z,82.70
2022-07-31T03:41:31.102Z,83.00
2022-07-31T03:46:35.612Z,83.00
2022-07-31T03:51:40.917Z,83.10
2022-07-31T03:56:48.563Z,83.40
2022-07-31T04:01:58.377Z,83.50
2022-07-31T04:07:38.702Z,83.50
2022-07-31T04:12:42.561Z,83.70
2022-07-31T04:17:46.881Z,83.80
2022-07-31T04:22:56.116Z,84.20
2022-07-31T04:28:22.544Z,84.20
2022-07-31T04:33:26.477Z,84.80
2022-07-31T04:38:31.565Z,85.40
2022-07-31T04:43:35.421Z,85.80
2022-07-31T04:48:39.227Z,85.50
2022-07-31T04:53:46.845Z,86.00
2022-07-31T04:58:50.628Z,87.00
2022-07-31T05:03:54.522Z,87.30
2022-07-31T05:09:00.189Z,87.20
2022-07-31T05:14:09.028Z,87.70
2022-07-31T05:19:14.747Z,88.10
2022-07-31T05:24:43.559Z,88.40
2022-07-31T05:29:48.560Z,88.50
2022-07-31T05:34:52.913Z,88.90
2022-07-31T05:39:58.570Z,89.20
2022-07-31T05:45:31.309Z,90.00
2022-07-31T05:50:35.341Z,90.50
2022-07-31T05:55:42.398Z,90.50
2022-07-31T06:01:18.179Z,90.50
2022-07-31T06:06:22.086Z,90.80
2022-07-31T06:11:28.444Z,91.10
2022-07-31T06:16:32.175Z,91.30
2022-07-31T06:21:36.559Z,91.40
2022-07-31T06:26:41.687Z,91.60
2022-07-31T06:31:46.641Z,91.80
2022-07-31T06:36:50.748Z,92.10
2022-07-31T06:41:59.611Z,92.00
2022-07-31T06:47:06.256Z,92.20
2022-07-31T06:52:36.110Z,92.20
2022-07-31T06:57:43.120Z,92.60
2022-07-31T07:02:48.083Z,92.60
2022-07-31T07:07:52.344Z,92.60
2022-07-31T07:12:57.598Z,93.50
2022-07-31T07:18:01.676Z,93.00
2022-07-31T07:23:11.824Z,93.40
2022-07-31T07:28:30.102Z,93.40
2022-07-31T07:33:40.834Z,93.20
2022-07-31T07:38:46.221Z,93.30
2022-07-31T07:43:53.984Z,93.20
2022-07-31T07:49:00.799Z,93.80
2022-07-31T07:54:16.767Z,93.40
2022-07-31T07:59:41.805Z,93.90
2022-07-31T08:05:11.527Z,93.80
2022-07-31T08:10:19.208Z,93.80
2022-07-31T08:15:32.433Z,93.80
2022-07-31T08:21:02.053Z,94.10
2022-07-31T08:26:08.371Z,94.20
2022-07-31T08:31:13.610Z,94.20
2022-07-31T08:36:28.979Z,94.20
2022-07-31T08:41:33.688Z,94.10
2022-07-31T08:46:41.008Z,94.10
2022-07-31T08:51:50.786Z,94.30
2022-07-31T08:57:31.547Z,94.40
2022-07-31T09:02:36.917Z,94.40
2022-07-31T09:08:00.836Z,94.40
2022-07-31T09:13:14.703Z,94.50
2022-07-31T09:18:24.671Z,94.80
2022-07-31T09:23:46.317Z,94.60
2022-07-31T09:28:51.464Z,94.80
2022-07-31T09:33:56.686Z,94.70
2022-07-31T09:39:27.184Z,94.80
2022-07-31T09:44:51.834Z,94.70
2022-07-31T09:49:59.246Z,95.00
2022-07-31T09:55:16.313Z,94.70
2022-07-31T10:00:22.372Z,94.60
2022-07-31T10:05:28.974Z,94.70
2022-07-31T10:10:38.363Z,94.50
2022-07-31T10:16:02.839Z,94.50
2022-07-31T10:21:18.221Z,94.40
2022-07-31T10:26:59.012Z,94.40
2022-07-31T10:31:59.039Z,94.20
2022-07-31T10:37:11.547Z,94.30
2022-07-31T10:42:46.282Z,94.00
2022-07-31T10:47:57.669Z,93.70
2022-07-31T10:53:50.072Z,93.70
2022-07-31T10:59:15.472Z,93.80
2022-07-31T11:04:34.604Z,93.70
2022-07-31T11:09:50.956Z,93.50
2022-07-31T11:15:27.172Z,93.50
2022-07-31T11:21:06.165Z,93.60
2022-07-31T11:26:33.025Z,93.50
2022-07-31T11:31:45.068Z,93.50
2022-07-31T11:36:51.416Z,93.40
2022-07-31T11:41:56.860Z,93.30
2022-07-31T11:47:00.830Z,93.40
2022-07-31T11:52:06.218Z,93.30
2022-07-31T11:57:11.924Z,93.40
2022-07-31T12:02:16.137Z,93.10
2022-07-31T12:07:19.896Z,92.80
2022-07-31T12:12:27.282Z,92.40
2022-07-31T12:17:31.193Z,92.80
2022-07-31T12:22:35.487Z,92.90
2022-07-31T12:27:42.003Z,92.70
2022-07-31T12:32:45.546Z,92.90
2022-07-31T12:37:51.181Z,91.80
2022-07-31T12:42:57.497Z,92.10
2022-07-31T12:48:01.427Z,91.90
2022-07-31T12:53:06.085Z,91.70
2022-07-31T12:58:11.373Z,91.50
2022-07-31T13:03:15.347Z,91.10
2022-07-31T13:08:19.093Z,91.40
2022-07-31T13:13:25.636Z,91.50
2022-07-31T13:18:30.126Z,91.40
2022-07-31T13:23:33.769Z,91.30
2022-07-31T13:28:38.805Z,91.30
2022-07-31T13:33:42.610Z,91.10
2022-07-31T13:38:46.333Z,91.20
2022-07-31T13:44:00.395Z,91.30
2022-07-31T13:49:08.575Z,91.20
2022-07-31T13:54:12.790Z,91.10
2022-07-31T13:59:18.301Z,91.10
2022-07-31T14:04:23.374Z,91.00
2022-07-31T14:09:27.956Z,90.90
2022-07-31T14:14:33.191Z,90.90
2022-07-31T14:19:40.604Z,90.90
2022-07-31T14:24:51.078Z,91.00
2022-07-31T14:29:56.673Z,91.00
2022-07-31T14:35:04.565Z,91.60
2022-07-31T14:40:12.654Z,92.50
2022-07-31T14:45:17.846Z,93.30
2022-07-31T14:50:28.788Z,94.60
2022-07-31T14:55:34.731Z,94.80
2022-07-31T15:00:39.893Z,95.50
2022-07-31T15:06:41.630Z,96.20
2022-07-31T15:11:07.561Z,96.20
2022-07-31T15:16:13.812Z,97.00
2022-07-31T15:21:17.634Z,97.30
2022-07-31T15:26:21.437Z,97.60
2022-07-31T15:31:26.520Z,97.20
2022-07-31T15:36:32.080Z,97.20
2022-07-31T15:41:39.325Z,97.90
2022-07-31T15:46:45.778Z,97.50
2022-07-31T15:51:51.975Z,97.70
2022-07-31T15:56:58.355Z,97.60
2022-07-31T16:02:05.668Z,97.60
2022-07-31T16:08:32.330Z,97.70
2022-07-31T16:12:37.861Z,97.70
2022-07-31T16:17:43.541Z,97.80
2022-07-31T16:22:52.563Z,97.80
2022-07-31T16:28:00.598Z,97.90
2022-07-31T16:33:12.144Z,98.10
2022-07-31T16:38:19.710Z,98.10
2022-07-31T16:43:48.236Z,98.20
2022-07-31T16:48:51.574Z,98.20
2022-07-31T16:54:14.598Z,98.40
2022-07-31T16:59:19.085Z,98.40
2022-07-31T17:04:24.217Z,98.70
2022-07-31T17:09:28.767Z,98.80
2022-07-31T17:14:32.421Z,99.00
2022-07-31T17:19:45.517Z,99.00
2022-07-31T17:24:51.717Z,99.20
2022-07-31T17:29:55.645Z,99.20
2022-07-31T17:35:00.802Z,99.60
2022-07-31T17:40:21.605Z,99.50
2022-07-31T17:45:50.876Z,99.50
2022-07-31T17:50:55.731Z,99.70
2022-07-31T17:55:59.444Z,99.80
2022-07-31T18:01:03.345Z,99.80
2022-07-31T18:06:08.413Z,99.70
2022-07-31T18:11:12.331Z,99.90
2022-07-31T18:16:16.288Z,99.90
2022-07-31T18:21:21.684Z,99.90
2022-07-31T18:26:25.798Z,99.90
2022-07-31T18:31:34.381Z,99.90
2022-07-31T18:36:41.222Z,99.90
2022-07-31T18:41:48.776Z,99.90
2022-07-31T18:46:54.751Z,99.90
2022-07-31T18:52:02.830Z,99.90
2022-07-31T18:57:09.489Z,99.90
2022-07-31T19:02:14.038Z,99.90
2022-07-31T19:07:19.849Z,99.90
2022-07-31T19:12:24.603Z,99.90
2022-07-31T19:17:44.323Z,99.90
2022-07-31T19:22:50.976Z,99.90
2022-07-31T19:27:55.001Z,99.90
2022-07-31T19:33:00.093Z,99.90
2022-07-31T19:38:06.561Z,99.90
2022-07-31T19:43:11.807Z,99.90
2022-07-31T19:48:22.257Z,99.90
2022-07-31T19:53:27.520Z,99.90
2022-07-31T19:58:34.984Z,99.90
2022-07-31T20:03:39.220Z,99.90
2022-07-31T20:08:44.332Z,99.90
2022-07-31T20:13:48.374Z,99.90
2022-07-31T20:18:52.637Z,99.90
2022-07-31T20:23:58.735Z,99.90
2022-07-31T20:29:03.653Z,99.90
2022-07-31T20:34:09.526Z,99.90
2022-07-31T20:39:14.578Z,99.90
2022-07-31T20:44:19.306Z,99.90
2022-07-31T20:49:35.003Z,99.90
2022-07-31T20:54:41.316Z,99.90
2022-07-31T20:59:48.350Z,99.90
2022-07-31T21:04:52.104Z,99.90
2022-07-31T21:09:58.243Z,99.90
2022-07-31T21:15:01.948Z,99.90
2022-07-31T21:20:08.517Z,99.90
2022-07-31T21:25:15.656Z,99.90
2022-07-31T21:30:19.833Z,99.90
2022-07-31T21:35:36.773Z,99.90
2022-07-31T21:40:43.607Z,99.90
2022-07-31T21:45:55.238Z,99.90
2022-07-31T21:51:02.362Z,99.90
2022-07-31T21:56:10.550Z,99.90
2022-07-31T22:01:15.308Z,99.90
2022-07-31T22:06:36.931Z,99.90
2022-07-31T22:11:41.993Z,99.90
2022-07-31T22:17:02.753Z,99.90
2022-07-31T22:22:08.188Z,99.90
2022-07-31T22:27:32.175Z,99.90
2022-07-31T22:32:36.305Z,99.90
2022-07-31T22:37:40.664Z,99.90
2022-07-31T22:42:57.372Z,99.90
2022-07-31T22:48:02.734Z,99.90
2022-07-31T22:53:06.367Z,99.90
2022-07-31T22:58:14.935Z,99.90
2022-07-31T23:03:18.667Z,99.90
2022-07-31T23:08:22.396Z,99.90
2022-07-31T23:13:27.916Z,99.90
2022-07-31T23:18:31.580Z,99.90
2022-07-31T23:23:35.666Z,99.90
2022-07-31T23:28:40.862Z,99.90
2022-07-31T23:33:45.385Z,99.90
2022-07-31T23:38:49.622Z,99.90
2022-07-31T23:43:55.468Z,99.90
2022-07-31T23:48:59.509Z,99.90
2022-07-31T23:54:05.539Z,99.90
2022-07-31T23:59:10.690Z,99.90
